sensor_id;sensor_type;location;lat;lon;timestamp;temperature;humidity
21830;DHT22;11077;50.264;6.798;2023-01-10T00:00:55;2.50;99.90
21830;DHT22;11077;50.264;6.798;2023-01-10T00:03:22;2.50;99.90
21830;DHT22;11077;50.264;6.798;2023-01-10T00:05:49;2.60;99.90
21830;DHT22;11077;50.264;6.798;2023-01-10T00:08:16;2.60;99.90
21830;DHT22;11077;50.264;6.798;2023-01-10T00:10:44;2.60;99.90
21830;DHT22;11077;50.264;6.798;2023-01-10T00:13:15;2.60;99.90
21830;DHT22;11077;50.264;6.798;2023-01-10T00:15:51;2.70;99.90
21830;DHT22;11077;50.264;6.798;2023-01-10T00:18:18;2.70;99.90
21830;DHT22;11077;50.264;6.798;2023-01-10T00:20:46;2.70;99.90
21830;DHT22;11077;50.264;6.798;2023-01-10T00:23:13;2.70;99.90
21830;DHT22;11077;50.264;6.798;2023-01-10T00:25:42;2.80;99.90
21830;DHT22;11077;50.264;6.798;2023-01-10T00:28:09;2.80;99.90
21830;DHT22;11077;50.264;6.798;2023-01-10T00:30:48;2.80;99.90
21830;DHT22;11077;50.264;6.798;2023-01-10T00:33:25;2.80;99.90
21830;DHT22;11077;50.264;6.798;2023-01-10T00:35:53;2.80;99.90
21830;DHT22;11077;50.264;6.798;2023-01-10T00:38:20;2.80;99.90
21830;DHT22;11077;50.264;6.798;2023-01-10T00:40:47;2.90;99.90
21830;DHT22;11077;50.264;6.798;2023-01-10T00:43:14;2.90;99.90
21830;DHT22;11077;50.264;6.798;2023-01-10T00:46:00;2.80;99.90
21830;DHT22;11077;50.264;6.798;2023-01-10T00:48:27;2.80;99.90
21830;DHT22;11077;50.264;6.798;2023-01-10T00:50:54;2.90;99.90
21830;DHT22;11077;50.264;6.798;2023-01-10T00:53:22;2.90;99.90
21830;DHT22;11077;50.264;6.798;2023-01-10T00:55:49;2.90;99.90
21830;DHT22;11077;50.264;6.798;2023-01-10T00:58:16;2.90;99.90
21830;DHT22;11077;50.264;6.798;2023-01-10T01:00:43;2.90;99.90
21830;DHT22;11077;50.264;6.798;2023-01-10T01:03:17;2.90;99.90
21830;DHT22;11077;50.264;6.798;2023-01-10T01:05:46;3.00;99.90
21830;DHT22;11077;50.264;6.798;2023-01-10T01:08:14;3.00;99.90
21830;DHT22;11077;50.264;6.798;2023-01-10T01:10:42;3.00;99.90
21830;DHT22;11077;50.264;6.798;2023-01-10T01:13:11;3.00;99.90
21830;DHT22;11077;50.264;6.798;2023-01-10T01:15:39;3.00;99.90
21830;DHT22;11077;50.264;6.798;2023-01-10T01:18:06;3.00;99.90
21830;DHT22;11077;50.264;6.798;2023-01-10T01:20:37;3.00;99.90
21830;DHT22;11077;50.264;6.798;2023-01-10T01:23:05;3.00;99.90
21830;DHT22;11077;50.264;6.798;2023-01-10T01:25:32;3.00;99.90
21830;DHT22;11077;50.264;6.798;2023-01-10T01:27:59;3.00;99.90
21830;DHT22;11077;50.264;6.798;2023-01-10T01:30:27;3.00;99.90
21830;DHT22;11077;50.264;6.798;2023-01-10T01:32:54;3.00;99.90
21830;DHT22;11077;50.264;6.798;2023-01-10T01:35:21;3.00;99.90
21830;DHT22;11077;50.264;6.798;2023-01-10T01:37:51;3.00;99.90
21830;DHT22;11077;50.264;6.798;2023-01-10T01:40:19;3.00;99.90
21830;DHT22;11077;50.264;6.798;2023-01-10T01:42:47;3.00;99.90
21830;DHT22;11077;50.264;6.798;2023-01-10T01:45:35;2.90;99.90
21830;DHT22;11077;50.264;6.798;2023-01-10T01:48:15;2.90;99.90
21830;DHT22;11077;50.264;6.798;2023-01-10T01:50:49;3.00;99.90
21830;DHT22;11077;50.264;6.798;2023-01-10T01:53:22;3.10;99.90
21830;DHT22;11077;50.264;6.798;2023-01-10T01:55:53;3.00;99.90
21830;DHT22;11077;50.264;6.798;2023-01-10T01:58:26;3.10;99.90
21830;DHT22;11077;50.264;6.798;2023-01-10T02:00:55;3.00;99.90
21830;DHT22;11077;50.264;6.798;2023-01-10T02:03:23;3.00;99.90
21830;DHT22;11077;50.264;6.798;2023-01-10T02:05:51;3.10;99.90
21830;DHT22;11077;50.264;6.798;2023-01-10T02:08:20;3.00;99.90
21830;DHT22;11077;50.264;6.798;2023-01-10T02:10:53;3.00;99.90
21830;DHT22;11077;50.264;6.798;2023-01-10T02:13:25;2.90;99.90
21830;DHT22;11077;50.264;6.798;2023-01-10T02:15:53;2.90;99.90
21830;DHT22;11077;50.264;6.798;2023-01-10T02:18:21;2.90;99.90
21830;DHT22;11077;50.264;6.798;2023-01-10T02:21:10;2.80;99.90
21830;DHT22;11077;50.264;6.798;2023-01-10T02:24:09;2.80;99.90
21830;DHT22;11077;50.264;6.798;2023-01-10T02:27:09;2.80;99.90
21830;DHT22;11077;50.264;6.798;2023-01-10T02:30:03;2.80;99.90
21830;DHT22;11077;50.264;6.798;2023-01-10T02:32:42;2.80;99.90
21830;DHT22;11077;50.264;6.798;2023-01-10T02:35:25;2.80;99.90
21830;DHT22;11077;50.264;6.798;2023-01-10T02:37:59;2.80;99.90
21830;DHT22;11077;50.264;6.798;2023-01-10T02:40:38;2.80;99.90
21830;DHT22;11077;50.264;6.798;2023-01-10T02:43:13;2.70;99.90
21830;DHT22;11077;50.264;6.798;2023-01-10T02:45:45;2.80;99.90
21830;DHT22;11077;50.264;6.798;2023-01-10T02:48:15;2.70;99.90
21830;DHT22;11077;50.264;6.798;2023-01-10T02:50:48;2.70;99.90
21830;DHT22;11077;50.264;6.798;2023-01-10T02:53:20;2.80;99.90
21830;DHT22;11077;50.264;6.798;2023-01-10T03:01:43;2.70;99.90
21830;DHT22;11077;50.264;6.798;2023-01-10T03:04:21;2.80;99.90
21830;DHT22;11077;50.264;6.798;2023-01-10T03:06:53;2.70;99.90
21830;DHT22;11077;50.264;6.798;2023-01-10T03:09:31;2.80;99.90
21830;DHT22;11077;50.264;6.798;2023-01-10T03:12:05;2.80;99.90
21830;DHT22;11077;50.264;6.798;2023-01-10T03:14:35;2.70;99.90
21830;DHT22;11077;50.264;6.798;2023-01-10T03:17:05;2.70;99.90
21830;DHT22;11077;50.264;6.798;2023-01-10T03:19:39;2.70;99.90
21830;DHT22;11077;50.264;6.798;2023-01-10T03:22:09;2.80;99.90
21830;DHT22;11077;50.264;6.798;2023-01-10T03:24:39;2.80;99.90
21830;DHT22;11077;50.264;6.798;2023-01-10T03:27:12;2.70;99.90
21830;DHT22;11077;50.264;6.798;2023-01-10T03:29:43;2.70;99.90
21830;DHT22;11077;50.264;6.798;2023-01-10T03:32:13;2.80;99.90
21830;DHT22;11077;50.264;6.798;2023-01-10T03:34:43;2.70;99.90
21830;DHT22;11077;50.264;6.798;2023-01-10T03:37:13;2.70;99.90
21830;DHT22;11077;50.264;6.798;2023-01-10T03:39:50;2.70;99.90
21830;DHT22;11077;50.264;6.798;2023-01-10T03:42:24;2.70;99.90
21830;DHT22;11077;50.264;6.798;2023-01-10T03:44:59;2.70;99.90
21830;DHT22;11077;50.264;6.798;2023-01-10T03:47:31;2.70;99.90
21830;DHT22;11077;50.264;6.798;2023-01-10T03:50:04;2.70;99.90
21830;DHT22;11077;50.264;6.798;2023-01-10T03:52:33;2.70;99.90
21830;DHT22;11077;50.264;6.798;2023-01-10T03:55:02;2.60;99.90
21830;DHT22;11077;50.264;6.798;2023-01-10T03:57:30;2.60;99.90
21830;DHT22;11077;50.264;6.798;2023-01-10T03:59:57;2.60;99.90
21830;DHT22;11077;50.264;6.798;2023-01-10T04:02:26;2.50;99.90
21830;DHT22;11077;50.264;6.798;2023-01-10T04:04:54;2.50;99.90
21830;DHT22;11077;50.264;6.798;2023-01-10T04:07:22;2.50;99.90
21830;DHT22;11077;50.264;6.798;2023-01-10T04:09:49;2.40;99.90
21830;DHT22;11077;50.264;6.798;2023-01-10T04:12:17;2.40;99.90
21830;DHT22;11077;50.264;6.798;2023-01-10T04:14:44;2.40;99.90
21830;DHT22;11077;50.264;6.798;2023-01-10T04:17:12;2.40;99.90
21830;DHT22;11077;50.264;6.798;2023-01-10T04:19:39;2.40;99.90
21830;DHT22;11077;50.264;6.798;2023-01-10T04:22:06;2.40;99.90
21830;DHT22;11077;50.264;6.798;2023-01-10T04:24:35;2.40;99.90
21830;DHT22;11077;50.264;6.798;2023-01-10T04:27:02;2.40;99.90
21830;DHT22;11077;50.264;6.798;2023-01-10T04:29:29;2.40;99.90
21830;DHT22;11077;50.264;6.798;2023-01-10T04:31:57;2.30;99.90
21830;DHT22;11077;50.264;6.798;2023-01-10T04:34:24;2.30;99.90
21830;DHT22;11077;50.264;6.798;2023-01-10T04:36:51;2.30;99.90
21830;DHT22;11077;50.264;6.798;2023-01-10T04:39:18;2.30;99.90
21830;DHT22;11077;50.264;6.798;2023-01-10T04:41:47;2.30;99.90
21830;DHT22;11077;50.264;6.798;2023-01-10T04:44:14;2.30;99.90
21830;DHT22;11077;50.264;6.798;2023-01-10T04:46:41;2.30;99.90
21830;DHT22;11077;50.264;6.798;2023-01-10T04:49:08;2.30;99.90
21830;DHT22;11077;50.264;6.798;2023-01-10T04:51:36;2.30;99.90
21830;DHT22;11077;50.264;6.798;2023-01-10T04:54:03;2.30;99.90
21830;DHT22;11077;50.264;6.798;2023-01-10T04:56:30;2.30;99.90
21830;DHT22;11077;50.264;6.798;2023-01-10T04:58:59;2.40;99.90
21830;DHT22;11077;50.264;6.798;2023-01-10T05:01:26;2.40;99.90
21830;DHT22;11077;50.264;6.798;2023-01-10T05:03:54;2.40;99.90
21830;DHT22;11077;50.264;6.798;2023-01-10T05:06:23;2.40;99.90
21830;DHT22;11077;50.264;6.798;2023-01-10T05:08:50;2.50;99.90
21830;DHT22;11077;50.264;6.798;2023-01-10T05:11:17;2.50;99.90
21830;DHT22;11077;50.264;6.798;2023-01-10T05:13:44;2.50;99.90
21830;DHT22;11077;50.264;6.798;2023-01-10T05:16:13;2.50;99.90
21830;DHT22;11077;50.264;6.798;2023-01-10T05:18:40;2.50;99.90
21830;DHT22;11077;50.264;6.798;2023-01-10T05:21:09;2.40;99.90
21830;DHT22;11077;50.264;6.798;2023-01-10T05:23:38;2.40;99.90
21830;DHT22;11077;50.264;6.798;2023-01-10T05:26:06;2.40;99.90
21830;DHT22;11077;50.264;6.798;2023-01-10T05:28:33;2.40;99.90
21830;DHT22;11077;50.264;6.798;2023-01-10T05:31:01;2.50;99.90
21830;DHT22;11077;50.264;6.798;2023-01-10T05:33:29;2.50;99.90
21830;DHT22;11077;50.264;6.798;2023-01-10T05:35:56;2.40;99.90
21830;DHT22;11077;50.264;6.798;2023-01-10T05:38:23;2.50;99.90
21830;DHT22;11077;50.264;6.798;2023-01-10T05:40:53;2.50;99.90
21830;DHT22;11077;50.264;6.798;2023-01-10T05:43:21;2.50;99.90
21830;DHT22;11077;50.264;6.798;2023-01-10T05:45:48;2.50;99.90
21830;DHT22;11077;50.264;6.798;2023-01-10T05:48:15;2.60;99.90
21830;DHT22;11077;50.264;6.798;2023-01-10T05:50:44;2.60;99.90
21830;DHT22;11077;50.264;6.798;2023-01-10T05:53:11;2.60;99.90
21830;DHT22;11077;50.264;6.798;2023-01-10T05:55:39;2.60;99.90
21830;DHT22;11077;50.264;6.798;2023-01-10T05:58:07;2.60;99.90
21830;DHT22;11077;50.264;6.798;2023-01-10T06:00:35;2.60;99.90
21830;DHT22;11077;50.264;6.798;2023-01-10T06:03:03;2.50;99.90
21830;DHT22;11077;50.264;6.798;2023-01-10T06:05:30;2.60;99.90
21830;DHT22;11077;50.264;6.798;2023-01-10T06:07:58;2.60;99.90
21830;DHT22;11077;50.264;6.798;2023-01-10T06:10:25;2.70;99.90
21830;DHT22;11077;50.264;6.798;2023-01-10T06:12:53;2.70;99.90
21830;DHT22;11077;50.264;6.798;2023-01-10T06:15:20;2.70;99.90
21830;DHT22;11077;50.264;6.798;2023-01-10T06:17:47;2.70;99.90
21830;DHT22;11077;50.264;6.798;2023-01-10T06:20:15;2.70;99.90
21830;DHT22;11077;50.264;6.798;2023-01-10T06:22:42;2.70;99.90
21830;DHT22;11077;50.264;6.798;2023-01-10T06:25:12;2.60;99.90
21830;DHT22;11077;50.264;6.798;2023-01-10T06:27:39;2.70;99.90
21830;DHT22;11077;50.264;6.798;2023-01-10T06:30:08;2.70;99.90
21830;DHT22;11077;50.264;6.798;2023-01-10T06:32:35;2.70;99.90
21830;DHT22;11077;50.264;6.798;2023-01-10T06:35:03;2.70;99.90
21830;DHT22;11077;50.264;6.798;2023-01-10T06:37:31;2.70;99.90
21830;DHT22;11077;50.264;6.798;2023-01-10T06:39:58;2.80;99.90
21830;DHT22;11077;50.264;6.798;2023-01-10T06:42:26;2.80;99.90
21830;DHT22;11077;50.264;6.798;2023-01-10T06:44:54;2.80;99.90
21830;DHT22;11077;50.264;6.798;2023-01-10T06:47:21;2.80;99.90
21830;DHT22;11077;50.264;6.798;2023-01-10T06:49:48;2.80;99.90
21830;DHT22;11077;50.264;6.798;2023-01-10T06:52:15;2.80;99.90
21830;DHT22;11077;50.264;6.798;2023-01-10T06:54:42;2.80;99.90
21830;DHT22;11077;50.264;6.798;2023-01-10T06:57:09;2.80;99.90
21830;DHT22;11077;50.264;6.798;2023-01-10T06:59:38;2.90;99.90
21830;DHT22;11077;50.264;6.798;2023-01-10T07:02:05;2.90;99.90
21830;DHT22;11077;50.264;6.798;2023-01-10T07:04:32;2.90;99.90
21830;DHT22;11077;50.264;6.798;2023-01-10T07:06:59;2.90;99.90
21830;DHT22;11077;50.264;6.798;2023-01-10T07:09:27;2.90;99.90
21830;DHT22;11077;50.264;6.798;2023-01-10T07:11:55;3.00;99.90
21830;DHT22;11077;50.264;6.798;2023-01-10T07:14:22;2.90;99.90
21830;DHT22;11077;50.264;6.798;2023-01-10T07:16:50;3.00;99.90
21830;DHT22;11077;50.264;6.798;2023-01-10T07:19:17;2.90;99.90
21830;DHT22;11077;50.264;6.798;2023-01-10T07:21:45;3.00;99.90
21830;DHT22;11077;50.264;6.798;2023-01-10T07:24:12;3.00;99.90
21830;DHT22;11077;50.264;6.798;2023-01-10T07:26:39;3.00;99.90
21830;DHT22;11077;50.264;6.798;2023-01-10T07:29:07;2.90;99.90
21830;DHT22;11077;50.264;6.798;2023-01-10T07:31:34;3.00;99.90
21830;DHT22;11077;50.264;6.798;2023-01-10T07:34:02;3.00;99.90
21830;DHT22;11077;50.264;6.798;2023-01-10T07:36:30;3.00;99.90
21830;DHT22;11077;50.264;6.798;2023-01-10T07:38:57;3.00;99.90
21830;DHT22;11077;50.264;6.798;2023-01-10T07:41:24;2.90;99.90
21830;DHT22;11077;50.264;6.798;2023-01-10T07:43:51;3.00;99.90
21830;DHT22;11077;50.264;6.798;2023-01-10T07:46:18;3.00;99.90
21830;DHT22;11077;50.264;6.798;2023-01-10T07:48:45;3.00;99.90
21830;DHT22;11077;50.264;6.798;2023-01-10T07:51:15;3.00;99.90
21830;DHT22;11077;50.264;6.798;2023-01-10T07:53:42;2.90;99.90
21830;DHT22;11077;50.264;6.798;2023-01-10T07:56:09;3.00;99.90
21830;DHT22;11077;50.264;6.798;2023-01-10T07:58:37;3.00;99.90
21830;DHT22;11077;50.264;6.798;2023-01-10T08:01:04;2.90;99.90
21830;DHT22;11077;50.264;6.798;2023-01-10T08:03:32;3.00;99.90
21830;DHT22;11077;50.264;6.798;2023-01-10T08:06:01;3.00;99.90
21830;DHT22;11077;50.264;6.798;2023-01-10T08:08:31;3.00;99.90
21830;DHT22;11077;50.264;6.798;2023-01-10T08:10:59;3.00;99.90
21830;DHT22;11077;50.264;6.798;2023-01-10T08:13:27;3.00;99.90
21830;DHT22;11077;50.264;6.798;2023-01-10T08:15:55;3.00;99.90
21830;DHT22;11077;50.264;6.798;2023-01-10T08:18:23;3.00;99.90
21830;DHT22;11077;50.264;6.798;2023-01-10T08:20:51;3.00;99.90
21830;DHT22;11077;50.264;6.798;2023-01-10T08:23:19;3.10;99.90
21830;DHT22;11077;50.264;6.798;2023-01-10T08:25:47;3.00;99.90
21830;DHT22;11077;50.264;6.798;2023-01-10T08:28:16;3.10;99.90
21830;DHT22;11077;50.264;6.798;2023-01-10T08:30:43;3.10;99.90
21830;DHT22;11077;50.264;6.798;2023-01-10T08:33:11;3.10;99.90
21830;DHT22;11077;50.264;6.798;2023-01-10T08:35:38;3.10;99.90
21830;DHT22;11077;50.264;6.798;2023-01-10T08:38:07;3.10;99.90
21830;DHT22;11077;50.264;6.798;2023-01-10T08:40:35;3.10;99.90
21830;DHT22;11077;50.264;6.798;2023-01-10T08:43:05;3.10;99.90
21830;DHT22;11077;50.264;6.798;2023-01-10T08:45:33;3.10;99.90
21830;DHT22;11077;50.264;6.798;2023-01-10T08:48:00;3.10;99.90
21830;DHT22;11077;50.264;6.798;2023-01-10T08:50:27;3.20;99.90
21830;DHT22;11077;50.264;6.798;2023-01-10T08:52:56;3.20;99.90
21830;DHT22;11077;50.264;6.798;2023-01-10T08:55:24;3.10;99.90
21830;DHT22;11077;50.264;6.798;2023-01-10T08:57:51;3.20;99.90
21830;DHT22;11077;50.264;6.798;2023-01-10T09:00:21;3.10;99.90
21830;DHT22;11077;50.264;6.798;2023-01-10T09:02:48;3.20;99.90
21830;DHT22;11077;50.264;6.798;2023-01-10T09:05:15;3.20;99.90
21830;DHT22;11077;50.264;6.798;2023-01-10T09:07:42;3.10;99.90
21830;DHT22;11077;50.264;6.798;2023-01-10T09:10:11;3.20;99.90
21830;DHT22;11077;50.264;6.798;2023-01-10T09:12:38;3.20;99.90
21830;DHT22;11077;50.264;6.798;2023-01-10T09:15:24;3.20;99.90
21830;DHT22;11077;50.264;6.798;2023-01-10T09:17:53;3.20;99.90
21830;DHT22;11077;50.264;6.798;2023-01-10T09:20:20;3.20;99.90
21830;DHT22;11077;50.264;6.798;2023-01-10T09:22:47;3.20;99.90
21830;DHT22;11077;50.264;6.798;2023-01-10T09:25:14;3.20;99.90
21830;DHT22;11077;50.264;6.798;2023-01-10T09:27:41;3.30;99.90
21830;DHT22;11077;50.264;6.798;2023-01-10T09:30:09;3.20;99.90
21830;DHT22;11077;50.264;6.798;2023-01-10T09:32:38;3.30;99.90
21830;DHT22;11077;50.264;6.798;2023-01-10T09:35:06;3.30;99.90
21830;DHT22;11077;50.264;6.798;2023-01-10T09:37:33;3.40;99.90
21830;DHT22;11077;50.264;6.798;2023-01-10T09:40:04;3.40;99.90
21830;DHT22;11077;50.264;6.798;2023-01-10T09:42:47;3.40;99.90
21830;DHT22;11077;50.264;6.798;2023-01-10T09:45:19;3.50;99.90
21830;DHT22;11077;50.264;6.798;2023-01-10T09:47:52;3.50;99.90
21830;DHT22;11077;50.264;6.798;2023-01-10T09:50:28;3.50;99.90
21830;DHT22;11077;50.264;6.798;2023-01-10T09:53:01;3.60;99.90
21830;DHT22;11077;50.264;6.798;2023-01-10T09:55:32;3.60;99.90
21830;DHT22;11077;50.264;6.798;2023-01-10T09:58:03;3.60;99.90
21830;DHT22;11077;50.264;6.798;2023-01-10T10:00:37;3.60;99.90
21830;DHT22;11077;50.264;6.798;2023-01-10T10:03:18;3.50;99.90
21830;DHT22;11077;50.264;6.798;2023-01-10T10:05:47;3.60;99.90
21830;DHT22;11077;50.264;6.798;2023-01-10T10:08:17;3.60;99.90
21830;DHT22;11077;50.264;6.798;2023-01-10T10:10:55;3.60;99.90
21830;DHT22;11077;50.264;6.798;2023-01-10T10:13:35;3.60;99.90
21830;DHT22;11077;50.264;6.798;2023-01-10T10:16:10;3.60;99.90
21830;DHT22;11077;50.264;6.798;2023-01-10T10:18:49;3.60;99.90
21830;DHT22;11077;50.264;6.798;2023-01-10T10:21:27;3.60;99.90
21830;DHT22;11077;50.264;6.798;2023-01-10T10:24:18;3.60;99.90
21830;DHT22;11077;50.264;6.798;2023-01-10T10:26:53;3.60;99.90
21830;DHT22;11077;50.264;6.798;2023-01-10T10:32:26;3.60;99.90
21830;DHT22;11077;50.264;6.798;2023-01-10T10:35:00;3.60;99.90
21830;DHT22;11077;50.264;6.798;2023-01-10T10:37:31;3.70;99.90
21830;DHT22;11077;50.264;6.798;2023-01-10T10:40:01;3.70;99.90
21830;DHT22;11077;50.264;6.798;2023-01-10T10:42:32;3.70;99.90
21830;DHT22;11077;50.264;6.798;2023-01-10T10:45:04;3.70;99.90
21830;DHT22;11077;50.264;6.798;2023-01-10T10:47:33;3.70;99.90
21830;DHT22;11077;50.264;6.798;2023-01-10T10:50:10;3.70;99.90
21830;DHT22;11077;50.264;6.798;2023-01-10T10:52:43;3.70;99.90
21830;DHT22;11077;50.264;6.798;2023-01-10T10:55:13;3.80;99.90
21830;DHT22;11077;50.264;6.798;2023-01-10T10:57:41;3.80;99.90
21830;DHT22;11077;50.264;6.798;2023-01-10T11:00:14;3.90;99.90
21830;DHT22;11077;50.264;6.798;2023-01-10T11:02:45;3.90;99.90
21830;DHT22;11077;50.264;6.798;2023-01-10T11:05:19;3.90;99.90
21830;DHT22;11077;50.264;6.798;2023-01-10T11:07:48;3.90;99.90
21830;DHT22;11077;50.264;6.798;2023-01-10T11:10:21;3.90;99.90
21830;DHT22;11077;50.264;6.798;2023-01-10T11:13:03;3.80;99.90
21830;DHT22;11077;50.264;6.798;2023-01-10T11:15:40;3.80;99.90
21830;DHT22;11077;50.264;6.798;2023-01-10T11:18:11;3.80;99.90
21830;DHT22;11077;50.264;6.798;2023-01-10T11:20:52;3.90;99.90
21830;DHT22;11077;50.264;6.798;2023-01-10T11:23:27;3.80;99.90
21830;DHT22;11077;50.264;6.798;2023-01-10T11:25:57;3.80;99.90
21830;DHT22;11077;50.264;6.798;2023-01-10T11:28:28;3.80;99.90
21830;DHT22;11077;50.264;6.798;2023-01-10T11:30:56;3.80;99.90
21830;DHT22;11077;50.264;6.798;2023-01-10T11:33:26;3.80;99.90
21830;DHT22;11077;50.264;6.798;2023-01-10T11:36:01;3.80;99.90
21830;DHT22;11077;50.264;6.798;2023-01-10T11:38:29;3.80;99.90
21830;DHT22;11077;50.264;6.798;2023-01-10T11:40:59;3.90;99.90
21830;DHT22;11077;50.264;6.798;2023-01-10T11:43:30;3.90;99.90
21830;DHT22;11077;50.264;6.798;2023-01-10T11:46:00;3.90;99.90
21830;DHT22;11077;50.264;6.798;2023-01-10T11:48:43;3.90;99.90
21830;DHT22;11077;50.264;6.798;2023-01-10T11:51:22;3.90;99.90
21830;DHT22;11077;50.264;6.798;2023-01-10T11:53:56;4.00;99.90
21830;DHT22;11077;50.264;6.798;2023-01-10T11:56:26;4.00;99.90
21830;DHT22;11077;50.264;6.798;2023-01-10T11:58:54;4.00;99.90
21830;DHT22;11077;50.264;6.798;2023-01-10T12:01:29;4.00;99.90
21830;DHT22;11077;50.264;6.798;2023-01-10T12:03:58;4.10;99.90
21830;DHT22;11077;50.264;6.798;2023-01-10T12:06:27;4.00;99.90
21830;DHT22;11077;50.264;6.798;2023-01-10T12:08:55;4.00;99.90
21830;DHT22;11077;50.264;6.798;2023-01-10T12:11:26;4.00;99.90
21830;DHT22;11077;50.264;6.798;2023-01-10T12:13:56;4.00;99.90
21830;DHT22;11077;50.264;6.798;2023-01-10T12:16:24;4.00;99.90
21830;DHT22;11077;50.264;6.798;2023-01-10T12:18:53;3.90;99.90
21830;DHT22;11077;50.264;6.798;2023-01-10T12:21:34;3.90;99.90
21830;DHT22;11077;50.264;6.798;2023-01-10T12:24:08;3.80;99.90
21830;DHT22;11077;50.264;6.798;2023-01-10T12:26:38;3.80;99.90
21830;DHT22;11077;50.264;6.798;2023-01-10T12:29:13;3.90;99.90
21830;DHT22;11077;50.264;6.798;2023-01-10T12:31:41;3.80;99.90
21830;DHT22;11077;50.264;6.798;2023-01-10T12:34:14;3.80;99.90
21830;DHT22;11077;50.264;6.798;2023-01-10T12:36:56;3.80;99.90
21830;DHT22;11077;50.264;6.798;2023-01-10T12:39:29;3.90;99.90
21830;DHT22;11077;50.264;6.798;2023-01-10T12:42:12;3.90;99.90
21830;DHT22;11077;50.264;6.798;2023-01-10T12:45:02;3.90;99.90
21830;DHT22;11077;50.264;6.798;2023-01-10T12:47:34;3.90;99.90
21830;DHT22;11077;50.264;6.798;2023-01-10T12:50:08;3.90;99.90
21830;DHT22;11077;50.264;6.798;2023-01-10T12:52:43;4.00;99.90
21830;DHT22;11077;50.264;6.798;2023-01-10T12:55:14;3.90;99.90
21830;DHT22;11077;50.264;6.798;2023-01-10T12:57:43;3.90;99.90
21830;DHT22;11077;50.264;6.798;2023-01-10T13:00:20;3.90;99.90
21830;DHT22;11077;50.264;6.798;2023-01-10T13:02:52;3.90;99.90
21830;DHT22;11077;50.264;6.798;2023-01-10T13:05:21;3.90;99.90
21830;DHT22;11077;50.264;6.798;2023-01-10T13:07:51;3.80;99.90
21830;DHT22;11077;50.264;6.798;2023-01-10T13:10:22;3.80;99.90
21830;DHT22;11077;50.264;6.798;2023-01-10T13:12:54;3.90;99.90
21830;DHT22;11077;50.264;6.798;2023-01-10T13:15:25;3.90;99.90
21830;DHT22;11077;50.264;6.798;2023-01-10T13:17:57;3.90;99.90
21830;DHT22;11077;50.264;6.798;2023-01-10T13:20:28;3.90;99.90
21830;DHT22;11077;50.264;6.798;2023-01-10T13:22:58;3.90;99.90
21830;DHT22;11077;50.264;6.798;2023-01-10T13:25:28;3.90;99.90
21830;DHT22;11077;50.264;6.798;2023-01-10T13:27:56;3.80;99.90
21830;DHT22;11077;50.264;6.798;2023-01-10T13:30:30;3.80;99.90
21830;DHT22;11077;50.264;6.798;2023-01-10T13:33:02;3.80;99.90
21830;DHT22;11077;50.264;6.798;2023-01-10T13:35:39;3.80;99.90
21830;DHT22;11077;50.264;6.798;2023-01-10T13:38:17;3.80;99.90
21830;DHT22;11077;50.264;6.798;2023-01-10T13:41:02;3.80;99.90
21830;DHT22;11077;50.264;6.798;2023-01-10T13:46:32;3.70;99.90
21830;DHT22;11077;50.264;6.798;2023-01-10T13:49:22;3.70;99.90
21830;DHT22;11077;50.264;6.798;2023-01-10T13:55:28;3.50;99.90
21830;DHT22;11077;50.264;6.798;2023-01-10T13:58:01;3.50;99.90
21830;DHT22;11077;50.264;6.798;2023-01-10T14:00:58;3.50;99.90
21830;DHT22;11077;50.264;6.798;2023-01-10T14:03:51;3.50;99.90
21830;DHT22;11077;50.264;6.798;2023-01-10T14:06:37;3.50;99.90
21830;DHT22;11077;50.264;6.798;2023-01-10T14:09:31;3.50;99.90
21830;DHT22;11077;50.264;6.798;2023-01-10T14:12:02;3.50;99.90
21830;DHT22;11077;50.264;6.798;2023-01-10T14:14:32;3.50;99.90
21830;DHT22;11077;50.264;6.798;2023-01-10T14:17:13;3.50;99.90
21830;DHT22;11077;50.264;6.798;2023-01-10T14:19:47;3.50;99.90
21830;DHT22;11077;50.264;6.798;2023-01-10T14:22:27;3.50;99.90
21830;DHT22;11077;50.264;6.798;2023-01-10T14:24:56;3.50;99.90
21830;DHT22;11077;50.264;6.798;2023-01-10T14:27:36;3.50;99.90
21830;DHT22;11077;50.264;6.798;2023-01-10T14:30:05;3.50;99.90
21830;DHT22;11077;50.264;6.798;2023-01-10T14:32:35;3.50;99.90
21830;DHT22;11077;50.264;6.798;2023-01-10T14:35:06;3.60;99.90
21830;DHT22;11077;50.264;6.798;2023-01-10T14:37:39;3.50;99.90
21830;DHT22;11077;50.264;6.798;2023-01-10T14:40:23;3.50;99.90
21830;DHT22;11077;50.264;6.798;2023-01-10T14:42:53;3.50;99.90
21830;DHT22;11077;50.264;6.798;2023-01-10T14:45:29;3.60;99.90
21830;DHT22;11077;50.264;6.798;2023-01-10T14:47:57;3.60;99.90
21830;DHT22;11077;50.264;6.798;2023-01-10T14:50:26;3.60;99.90
21830;DHT22;11077;50.264;6.798;2023-01-10T14:52:54;3.60;99.90
21830;DHT22;11077;50.264;6.798;2023-01-10T14:55:22;3.60;99.90
21830;DHT22;11077;50.264;6.798;2023-01-10T14:57:54;3.60;99.90
21830;DHT22;11077;50.264;6.798;2023-01-10T15:00:28;3.60;99.90
21830;DHT22;11077;50.264;6.798;2023-01-10T15:02:57;3.70;99.90
21830;DHT22;11077;50.264;6.798;2023-01-10T15:05:27;3.70;99.90
21830;DHT22;11077;50.264;6.798;2023-01-10T15:10:41;3.70;99.90
21830;DHT22;11077;50.264;6.798;2023-01-10T15:13:14;3.70;99.90
21830;DHT22;11077;50.264;6.798;2023-01-10T15:15:44;3.70;99.90
21830;DHT22;11077;50.264;6.798;2023-01-10T15:18:24;3.80;99.90
21830;DHT22;11077;50.264;6.798;2023-01-10T15:20:53;3.80;99.90
21830;DHT22;11077;50.264;6.798;2023-01-10T15:23:20;3.80;99.90
21830;DHT22;11077;50.264;6.798;2023-01-10T15:25:56;3.70;99.90
21830;DHT22;11077;50.264;6.798;2023-01-10T15:28:27;3.70;99.90
21830;DHT22;11077;50.264;6.798;2023-01-10T15:30:55;3.70;99.90
21830;DHT22;11077;50.264;6.798;2023-01-10T15:33:26;3.70;99.90
21830;DHT22;11077;50.264;6.798;2023-01-10T15:35:55;3.70;99.90
21830;DHT22;11077;50.264;6.798;2023-01-10T15:38:24;3.70;99.90
21830;DHT22;11077;50.264;6.798;2023-01-10T15:40:56;3.70;99.90
21830;DHT22;11077;50.264;6.798;2023-01-10T15:43:28;3.70;99.90
21830;DHT22;11077;50.264;6.798;2023-01-10T15:45:57;3.60;99.90
21830;DHT22;11077;50.264;6.798;2023-01-10T15:48:30;3.60;99.90
21830;DHT22;11077;50.264;6.798;2023-01-10T15:50:59;3.60;99.90
21830;DHT22;11077;50.264;6.798;2023-01-10T15:53:58;3.60;99.90
21830;DHT22;11077;50.264;6.798;2023-01-10T15:56:33;3.60;99.90
21830;DHT22;11077;50.264;6.798;2023-01-10T15:59:04;3.60;99.90
21830;DHT22;11077;50.264;6.798;2023-01-10T16:01:32;3.60;99.90
21830;DHT22;11077;50.264;6.798;2023-01-10T16:04:02;3.60;99.90
21830;DHT22;11077;50.264;6.798;2023-01-10T16:06:32;3.60;99.90
21830;DHT22;11077;50.264;6.798;2023-01-10T16:09:01;3.60;99.90
21830;DHT22;11077;50.264;6.798;2023-01-10T16:11:37;3.60;99.90
21830;DHT22;11077;50.264;6.798;2023-01-10T16:14:23;3.60;99.90
21830;DHT22;11077;50.264;6.798;2023-01-10T16:16:50;3.60;99.90
21830;DHT22;11077;50.264;6.798;2023-01-10T16:19:18;3.60;99.90
21830;DHT22;11077;50.264;6.798;2023-01-10T16:21:48;3.60;99.90
21830;DHT22;11077;50.264;6.798;2023-01-10T16:24:20;3.60;99.90
21830;DHT22;11077;50.264;6.798;2023-01-10T16:26:49;3.60;99.90